sensor_id;sensor_type;location;lat;lon;timestamp;temperature;humidity
44215;DHT22;29884;47.450;19.124;2022-09-12T00:00:42;15.80;99.90
44215;DHT22;29884;47.450;19.124;2022-09-12T00:03:07;15.80;99.90
44215;DHT22;29884;47.450;19.124;2022-09-12T00:05:35;15.80;99.90
44215;DHT22;29884;47.450;19.124;2022-09-12T00:08:04;15.80;99.90
44215;DHT22;29884;47.450;19.124;2022-09-12T00:10:30;15.80;99.90
44215;DHT22;29884;47.450;19.124;2022-09-12T00:12:56;15.70;99.90
44215;DHT22;29884;47.450;19.124;2022-09-12T00:15:21;15.70;99.90
44215;DHT22;29884;47.450;19.124;2022-09-12T00:17:47;15.70;99.90
44215;DHT22;29884;47.450;19.124;2022-09-12T00:20:13;15.70;99.90
44215;DHT22;29884;47.450;19.124;2022-09-12T00:22:38;15.70;99.90
44215;DHT22;29884;47.450;19.124;2022-09-12T00:25:04;15.60;99.90
44215;DHT22;29884;47.450;19.124;2022-09-12T00:27:30;15.70;99.90
44215;DHT22;29884;47.450;19.124;2022-09-12T00:29:56;15.70;99.90
44215;DHT22;29884;47.450;19.124;2022-09-12T00:32:22;15.70;99.90
44215;DHT22;29884;47.450;19.124;2022-09-12T00:34:47;15.60;99.90
44215;DHT22;29884;47.450;19.124;2022-09-12T00:37:13;15.60;99.90
44215;DHT22;29884;47.450;19.124;2022-09-12T00:39:39;15.60;99.90
44215;DHT22;29884;47.450;19.124;2022-09-12T00:42:05;15.60;99.90
44215;DHT22;29884;47.450;19.124;2022-09-12T00:47:09;15.60;99.90
44215;DHT22;29884;47.450;19.124;2022-09-12T00:50:04;15.60;99.90
44215;DHT22;29884;47.450;19.124;2022-09-12T00:52:35;15.50;99.90
44215;DHT22;29884;47.450;19.124;2022-09-12T01:00:31;15.50;99.90
44215;DHT22;29884;47.450;19.124;2022-09-12T01:03:05;15.50;99.90
44215;DHT22;29884;47.450;19.124;2022-09-12T01:05:35;15.50;99.90
44215;DHT22;29884;47.450;19.124;2022-09-12T01:08:02;15.40;99.90
44215;DHT22;29884;47.450;19.124;2022-09-12T01:10:29;15.50;99.90
44215;DHT22;29884;47.450;19.124;2022-09-12T01:12:55;15.40;99.90
44215;DHT22;29884;47.450;19.124;2022-09-12T01:15:20;15.40;99.90
44215;DHT22;29884;47.450;19.124;2022-09-12T01:18:08;15.40;99.90
44215;DHT22;29884;47.450;19.124;2022-09-12T01:20:47;15.40;99.90
44215;DHT22;29884;47.450;19.124;2022-09-12T01:31:36;15.30;99.90
44215;DHT22;29884;47.450;19.124;2022-09-12T01:34:19;15.30;99.90
44215;DHT22;29884;47.450;19.124;2022-09-12T01:37:10;15.30;99.90
44215;DHT22;29884;47.450;19.124;2022-09-12T01:39:55;15.20;99.90
44215;DHT22;29884;47.450;19.124;2022-09-12T01:42:44;15.20;99.90
44215;DHT22;29884;47.450;19.124;2022-09-12T01:45:19;15.10;99.90
44215;DHT22;29884;47.450;19.124;2022-09-12T01:47:49;15.10;99.90
44215;DHT22;29884;47.450;19.124;2022-09-12T01:50:45;15.10;99.90
44215;DHT22;29884;47.450;19.124;2022-09-12T01:53:23;15.10;99.90
44215;DHT22;29884;47.450;19.124;2022-09-12T01:58:32;15.10;99.90
44215;DHT22;29884;47.450;19.124;2022-09-12T02:01:10;15.10;99.90
44215;DHT22;29884;47.450;19.124;2022-09-12T02:03:46;15.10;99.90
44215;DHT22;29884;47.450;19.124;2022-09-12T02:06:22;15.10;99.90
44215;DHT22;29884;47.450;19.124;2022-09-12T02:08:56;15.00;99.90
44215;DHT22;29884;47.450;19.124;2022-09-12T02:11:22;15.00;99.90
44215;DHT22;29884;47.450;19.124;2022-09-12T02:13:55;15.00;99.90
44215;DHT22;29884;47.450;19.124;2022-09-12T02:16:31;14.90;99.90
44215;DHT22;29884;47.450;19.124;2022-09-12T02:19:03;14.90;99.90
44215;DHT22;29884;47.450;19.124;2022-09-12T02:21:34;14.90;99.90
44215;DHT22;29884;47.450;19.124;2022-09-12T02:24:02;14.90;99.90
44215;DHT22;29884;47.450;19.124;2022-09-12T02:26:33;14.90;99.90
44215;DHT22;29884;47.450;19.124;2022-09-12T02:29:00;14.90;99.90
44215;DHT22;29884;47.450;19.124;2022-09-12T02:31:39;14.90;99.90
44215;DHT22;29884;47.450;19.124;2022-09-12T02:34:36;14.90;99.90
44215;DHT22;29884;47.450;19.124;2022-09-12T02:40:25;14.90;99.90
44215;DHT22;29884;47.450;19.124;2022-09-12T02:42:51;14.90;99.90
44215;DHT22;29884;47.450;19.124;2022-09-12T02:45:17;14.90;99.90
44215;DHT22;29884;47.450;19.124;2022-09-12T02:50:25;14.90;99.90
44215;DHT22;29884;47.450;19.124;2022-09-12T02:52:52;14.90;99.90
44215;DHT22;29884;47.450;19.124;2022-09-12T02:55:19;14.90;99.90
44215;DHT22;29884;47.450;19.124;2022-09-12T02:57:45;14.90;99.90
44215;DHT22;29884;47.450;19.124;2022-09-12T03:00:11;14.90;99.90
44215;DHT22;29884;47.450;19.124;2022-09-12T03:05:20;14.90;99.90
44215;DHT22;29884;47.450;19.124;2022-09-12T03:26:39;14.80;99.90
44215;DHT22;29884;47.450;19.124;2022-09-12T03:29:07;14.80;99.90
44215;DHT22;29884;47.450;19.124;2022-09-12T03:31:35;14.80;99.90
44215;DHT22;29884;47.450;19.124;2022-09-12T03:34:01;14.80;99.90
44215;DHT22;29884;47.450;19.124;2022-09-12T03:36:28;14.90;99.90
44215;DHT22;29884;47.450;19.124;2022-09-12T03:38:55;14.80;99.90
44215;DHT22;29884;47.450;19.124;2022-09-12T03:41:21;14.80;99.90
44215;DHT22;29884;47.450;19.124;2022-09-12T03:43:47;14.80;99.90
44215;DHT22;29884;47.450;19.124;2022-09-12T03:46:13;14.80;99.90
44215;DHT22;29884;47.450;19.124;2022-09-12T03:48:39;14.80;99.90
44215;DHT22;29884;47.450;19.124;2022-09-12T03:51:07;14.80;99.90
44215;DHT22;29884;47.450;19.124;2022-09-12T03:53:33;14.80;99.90
44215;DHT22;29884;47.450;19.124;2022-09-12T03:55:59;14.80;99.90
44215;DHT22;29884;47.450;19.124;2022-09-12T03:58:29;14.80;99.90
44215;DHT22;29884;47.450;19.124;2022-09-12T04:00:55;14.70;99.90
44215;DHT22;29884;47.450;19.124;2022-09-12T04:03:20;14.70;99.90
44215;DHT22;29884;47.450;19.124;2022-09-12T04:05:46;14.70;99.90
44215;DHT22;29884;47.450;19.124;2022-09-12T04:08:13;14.70;99.90
44215;DHT22;29884;47.450;19.124;2022-09-12T04:10:39;14.70;99.90
44215;DHT22;29884;47.450;19.124;2022-09-12T04:13:05;14.70;99.90
44215;DHT22;29884;47.450;19.124;2022-09-12T04:15:31;14.70;99.90
44215;DHT22;29884;47.450;19.124;2022-09-12T04:17:57;14.70;99.90
44215;DHT22;29884;47.450;19.124;2022-09-12T04:20:22;14.80;99.90
44215;DHT22;29884;47.450;19.124;2022-09-12T04:22:48;14.80;99.90
44215;DHT22;29884;47.450;19.124;2022-09-12T04:25:14;14.70;99.90
44215;DHT22;29884;47.450;19.124;2022-09-12T04:27:40;14.70;99.90
44215;DHT22;29884;47.450;19.124;2022-09-12T04:30:06;14.70;99.90
44215;DHT22;29884;47.450;19.124;2022-09-12T04:32:33;14.70;99.90
44215;DHT22;29884;47.450;19.124;2022-09-12T04:34:58;14.80;99.90
44215;DHT22;29884;47.450;19.124;2022-09-12T04:37:24;14.80;99.90
44215;DHT22;29884;47.450;19.124;2022-09-12T04:39:50;14.80;99.90
44215;DHT22;29884;47.450;19.124;2022-09-12T04:42:16;14.80;99.90
44215;DHT22;29884;47.450;19.124;2022-09-12T04:44:42;14.80;99.90
44215;DHT22;29884;47.450;19.124;2022-09-12T04:47:07;14.90;99.90
44215;DHT22;29884;47.450;19.124;2022-09-12T04:49:33;14.90;99.90
44215;DHT22;29884;47.450;19.124;2022-09-12T04:51:59;14.90;99.90
44215;DHT22;29884;47.450;19.124;2022-09-12T04:54:25;15.00;99.90
44215;DHT22;29884;47.450;19.124;2022-09-12T04:56:51;15.00;99.90
44215;DHT22;29884;47.450;19.124;2022-09-12T04:59:19;15.00;99.90
44215;DHT22;29884;47.450;19.124;2022-09-12T05:01:46;15.10;99.90
44215;DHT22;29884;47.450;19.124;2022-09-12T05:04:13;15.10;99.90
44215;DHT22;29884;47.450;19.124;2022-09-12T05:06:40;15.10;99.90
44215;DHT22;29884;47.450;19.124;2022-09-12T05:09:07;15.20;99.90
44215;DHT22;29884;47.450;19.124;2022-09-12T05:11:36;15.20;99.90
44215;DHT22;29884;47.450;19.124;2022-09-12T05:14:03;15.30;99.90
44215;DHT22;29884;47.450;19.124;2022-09-12T05:16:28;15.30;99.90
44215;DHT22;29884;47.450;19.124;2022-09-12T05:18:57;15.40;99.90
44215;DHT22;29884;47.450;19.124;2022-09-12T05:21:25;15.40;99.90
44215;DHT22;29884;47.450;19.124;2022-09-12T05:23:52;15.40;99.90
44215;DHT22;29884;47.450;19.124;2022-09-12T05:26:18;15.50;99.90
44215;DHT22;29884;47.450;19.124;2022-09-12T05:28:46;15.50;99.90
44215;DHT22;29884;47.450;19.124;2022-09-12T05:31:20;15.60;99.90
44215;DHT22;29884;47.450;19.124;2022-09-12T05:33:48;15.60;99.90
44215;DHT22;29884;47.450;19.124;2022-09-12T05:36:34;15.70;99.90
44215;DHT22;29884;47.450;19.124;2022-09-12T05:39:02;15.80;99.90
44215;DHT22;29884;47.450;19.124;2022-09-12T05:41:30;15.80;99.90
44215;DHT22;29884;47.450;19.124;2022-09-12T05:43:59;15.80;99.90
44215;DHT22;29884;47.450;19.124;2022-09-12T05:46:31;15.80;99.90
44215;DHT22;29884;47.450;19.124;2022-09-12T05:49:01;15.80;99.90
44215;DHT22;29884;47.450;19.124;2022-09-12T05:51:28;15.80;99.90
44215;DHT22;29884;47.450;19.124;2022-09-12T05:53:58;15.90;99.90
44215;DHT22;29884;47.450;19.124;2022-09-12T05:56:28;15.90;99.90
44215;DHT22;29884;47.450;19.124;2022-09-12T06:01:23;16.00;99.90
44215;DHT22;29884;47.450;19.124;2022-09-12T06:03:51;16.10;99.90
44215;DHT22;29884;47.450;19.124;2022-09-12T06:06:19;16.10;99.90
44215;DHT22;29884;47.450;19.124;2022-09-12T06:08:48;16.20;99.90
44215;DHT22;29884;47.450;19.124;2022-09-12T06:11:19;16.20;99.90
44215;DHT22;29884;47.450;19.124;2022-09-12T06:13:45;16.30;99.90
44215;DHT22;29884;47.450;19.124;2022-09-12T06:16:16;16.30;99.90
44215;DHT22;29884;47.450;19.124;2022-09-12T06:18:50;16.30;99.90
44215;DHT22;29884;47.450;19.124;2022-09-12T06:21:16;16.40;99.90
44215;DHT22;29884;47.450;19.124;2022-09-12T06:23:42;16.40;99.90
44215;DHT22;29884;47.450;19.124;2022-09-12T06:26:10;16.50;99.90
44215;DHT22;29884;47.450;19.124;2022-09-12T06:28:38;16.50;99.90
44215;DHT22;29884;47.450;19.124;2022-09-12T06:31:05;16.60;99.90
44215;DHT22;29884;47.450;19.124;2022-09-12T06:33:33;16.60;99.90
44215;DHT22;29884;47.450;19.124;2022-09-12T06:36:20;16.70;99.90
44215;DHT22;29884;47.450;19.124;2022-09-12T06:38:47;16.70;99.90
44215;DHT22;29884;47.450;19.124;2022-09-12T06:41:15;16.80;99.90
44215;DHT22;29884;47.450;19.124;2022-09-12T06:43:41;16.90;99.90
44215;DHT22;29884;47.450;19.124;2022-09-12T06:46:08;16.90;99.90
44215;DHT22;29884;47.450;19.124;2022-09-12T06:48:34;17.00;99.90
44215;DHT22;29884;47.450;19.124;2022-09-12T06:51:05;17.00;99.90
44215;DHT22;29884;47.450;19.124;2022-09-12T06:53:32;17.00;99.90
44215;DHT22;29884;47.450;19.124;2022-09-12T06:56:00;17.10;99.90
44215;DHT22;29884;47.450;19.124;2022-09-12T06:58:27;17.20;99.90
44215;DHT22;29884;47.450;19.124;2022-09-12T07:01:11;17.30;99.90
44215;DHT22;29884;47.450;19.124;2022-09-12T07:03:37;17.50;99.90
44215;DHT22;29884;47.450;19.124;2022-09-12T07:06:11;17.60;99.90
44215;DHT22;29884;47.450;19.124;2022-09-12T07:08:37;17.60;99.90
44215;DHT22;29884;47.450;19.124;2022-09-12T07:11:12;17.80;99.90
44215;DHT22;29884;47.450;19.124;2022-09-12T07:13:39;18.00;99.90
44215;DHT22;29884;47.450;19.124;2022-09-12T07:16:06;18.00;99.90
44215;DHT22;29884;47.450;19.124;2022-09-12T07:18:33;18.10;99.90
44215;DHT22;29884;47.450;19.124;2022-09-12T07:21:03;18.20;99.90
44215;DHT22;29884;47.450;19.124;2022-09-12T07:23:29;18.30;99.90
44215;DHT22;29884;47.450;19.124;2022-09-12T07:25:56;18.30;99.90
44215;DHT22;29884;47.450;19.124;2022-09-12T07:28:26;18.50;99.90
44215;DHT22;29884;47.450;19.124;2022-09-12T07:30:52;18.60;99.90
44215;DHT22;29884;47.450;19.124;2022-09-12T07:33:23;18.70;99.90
44215;DHT22;29884;47.450;19.124;2022-09-12T07:35:49;18.80;99.90
44215;DHT22;29884;47.450;19.124;2022-09-12T07:38:15;18.80;99.90
44215;DHT22;29884;47.450;19.124;2022-09-12T07:40:42;19.00;99.90
44215;DHT22;29884;47.450;19.124;2022-09-12T07:43:08;19.10;99.90
44215;DHT22;29884;47.450;19.124;2022-09-12T07:45:34;19.00;99.90
44215;DHT22;29884;47.450;19.124;2022-09-12T07:48:00;18.90;99.90
44215;DHT22;29884;47.450;19.124;2022-09-12T07:50:26;18.80;99.90
44215;DHT22;29884;47.450;19.124;2022-09-12T07:52:55;18.70;99.90
44215;DHT22;29884;47.450;19.124;2022-09-12T07:55:21;19.00;99.90
44215;DHT22;29884;47.450;19.124;2022-09-12T07:57:50;19.40;99.90
44215;DHT22;29884;47.450;19.124;2022-09-12T08:00:17;19.80;99.90
44215;DHT22;29884;47.450;19.124;2022-09-12T08:02:43;20.00;99.90
44215;DHT22;29884;47.450;19.124;2022-09-12T08:05:09;19.90;99.90
44215;DHT22;29884;47.450;19.124;2022-09-12T08:07:36;19.80;99.90
44215;DHT22;29884;47.450;19.124;2022-09-12T08:10:01;19.60;99.90
44215;DHT22;29884;47.450;19.124;2022-09-12T08:12:27;19.40;99.90
44215;DHT22;29884;47.450;19.124;2022-09-12T08:14:53;19.50;99.90
44215;DHT22;29884;47.450;19.124;2022-09-12T08:17:19;19.40;99.90
44215;DHT22;29884;47.450;19.124;2022-09-12T08:19:45;19.50;99.90
44215;DHT22;29884;47.450;19.124;2022-09-12T08:22:12;19.80;99.90
44215;DHT22;29884;47.450;19.124;2022-09-12T08:24:38;20.20;99.90
44215;DHT22;29884;47.450;19.124;2022-09-12T08:27:05;20.40;99.90
44215;DHT22;29884;47.450;19.124;2022-09-12T08:29:31;20.50;99.90
44215;DHT22;29884;47.450;19.124;2022-09-12T08:31:56;20.50;99.90
44215;DHT22;29884;47.450;19.124;2022-09-12T08:34:22;20.60;99.90
44215;DHT22;29884;47.450;19.124;2022-09-12T08:36:49;20.70;99.90
44215;DHT22;29884;47.450;19.124;2022-09-12T08:39:15;20.80;99.90
44215;DHT22;29884;47.450;19.124;2022-09-12T08:41:45;21.00;99.90
44215;DHT22;29884;47.450;19.124;2022-09-12T08:44:21;21.10;99.90
44215;DHT22;29884;47.450;19.124;2022-09-12T08:52:23;21.10;99.90
44215;DHT22;29884;47.450;19.124;2022-09-12T08:54:49;21.20;99.90
44215;DHT22;29884;47.450;19.124;2022-09-12T08:57:15;21.40;99.90
44215;DHT22;29884;47.450;19.124;2022-09-12T08:59:43;21.40;99.90
44215;DHT22;29884;47.450;19.124;2022-09-12T09:02:37;21.40;99.90
44215;DHT22;29884;47.450;19.124;2022-09-12T09:08:12;21.50;99.90
44215;DHT22;29884;47.450;19.124;2022-09-12T09:10:56;21.70;99.90
44215;DHT22;29884;47.450;19.124;2022-09-12T09:16:34;21.90;99.90
44215;DHT22;29884;47.450;19.124;2022-09-12T09:19:04;21.90;99.90
44215;DHT22;29884;47.450;19.124;2022-09-12T09:21:46;22.00;99.90
44215;DHT22;29884;47.450;19.124;2022-09-12T09:24:20;22.10;99.20
44215;DHT22;29884;47.450;19.124;2022-09-12T09:26:49;22.30;98.20
44215;DHT22;29884;47.450;19.124;2022-09-12T09:29:19;22.20;98.60
44215;DHT22;29884;47.450;19.124;2022-09-12T09:31:51;22.30;99.00
44215;DHT22;29884;47.450;19.124;2022-09-12T09:39:33;22.60;96.70
44215;DHT22;29884;47.450;19.124;2022-09-12T09:42:44;22.40;97.30
44215;DHT22;29884;47.450;19.124;2022-09-12T09:45:14;22.50;96.50
44215;DHT22;29884;47.450;19.124;2022-09-12T09:47:53;22.30;96.60
44215;DHT22;29884;47.450;19.124;2022-09-12T09:50:21;22.30;96.20
44215;DHT22;29884;47.450;19.124;2022-09-12T09:52:48;22.10;95.70
44215;DHT22;29884;47.450;19.124;2022-09-12T09:55:18;22.20;95.70
44215;DHT22;29884;47.450;19.124;2022-09-12T09:57:46;22.60;94.80
44215;DHT22;29884;47.450;19.124;2022-09-12T10:00:28;22.80;94.10
44215;DHT22;29884;47.450;19.124;2022-09-12T10:05:53;23.40;93.70
44215;DHT22;29884;47.450;19.124;2022-09-12T10:08:22;23.40;93.60
44215;DHT22;29884;47.450;19.124;2022-09-12T10:16:27;22.50;94.30
44215;DHT22;29884;47.450;19.124;2022-09-12T10:18:55;22.70;93.70
44215;DHT22;29884;47.450;19.124;2022-09-12T10:21:59;22.50;93.90
44215;DHT22;29884;47.450;19.124;2022-09-12T10:24:38;22.90;93.40
44215;DHT22;29884;47.450;19.124;2022-09-12T10:35:21;21.50;95.70
44215;DHT22;29884;47.450;19.124;2022-09-12T10:37:51;21.30;95.90
44215;DHT22;29884;47.450;19.124;2022-09-12T10:40:26;21.10;95.80
44215;DHT22;29884;47.450;19.124;2022-09-12T10:42:53;21.00;94.80
44215;DHT22;29884;47.450;19.124;2022-09-12T10:47:55;20.90;95.70
44215;DHT22;29884;47.450;19.124;2022-09-12T10:50:38;21.00;95.50
44215;DHT22;29884;47.450;19.124;2022-09-12T10:53:19;21.00;95.80
44215;DHT22;29884;47.450;19.124;2022-09-12T11:04:05;21.40;96.00
44215;DHT22;29884;47.450;19.124;2022-09-12T11:09:33;21.30;96.40
44215;DHT22;29884;47.450;19.124;2022-09-12T11:34:07;21.10;94.10
44215;DHT22;29884;47.450;19.124;2022-09-12T11:36:43;21.00;94.90
44215;DHT22;29884;47.450;19.124;2022-09-12T11:39:38;20.90;94.80
44215;DHT22;29884;47.450;19.124;2022-09-12T11:42:19;21.00;95.20
44215;DHT22;29884;47.450;19.124;2022-09-12T11:45:08;21.20;94.40
44215;DHT22;29884;47.450;19.124;2022-09-12T11:47:38;21.70;93.80
44215;DHT22;29884;47.450;19.124;2022-09-12T11:50:29;22.30;93.50
44215;DHT22;29884;47.450;19.124;2022-09-12T11:53:04;22.70;92.90
44215;DHT22;29884;47.450;19.124;2022-09-12T11:55:54;22.20;92.50
44215;DHT22;29884;47.450;19.124;2022-09-12T11:58:25;21.90;92.90
44215;DHT22;29884;47.450;19.124;2022-09-12T12:00:55;21.50;93.80
44215;DHT22;29884;47.450;19.124;2022-09-12T12:03:41;21.40;94.40
44215;DHT22;29884;47.450;19.124;2022-09-12T12:08:54;21.10;95.10
44215;DHT22;29884;47.450;19.124;2022-09-12T12:13:59;20.70;95.30
44215;DHT22;29884;47.450;19.124;2022-09-12T12:16:37;20.80;95.30
44215;DHT22;29884;47.450;19.124;2022-09-12T12:19:31;20.80;95.40
44215;DHT22;29884;47.450;19.124;2022-09-12T12:22:06;20.70;96.10
44215;DHT22;29884;47.450;19.124;2022-09-12T12:24:32;20.90;95.70
44215;DHT22;29884;47.450;19.124;2022-09-12T12:27:04;20.90;95.70
44215;DHT22;29884;47.450;19.124;2022-09-12T12:29:47;20.90;95.80
44215;DHT22;29884;47.450;19.124;2022-09-12T12:34:43;22.10;95.30
44215;DHT22;29884;47.450;19.124;2022-09-12T12:44:59;22.60;93.60
44215;DHT22;29884;47.450;19.124;2022-09-12T12:50:01;22.20;93.30
44215;DHT22;29884;47.450;19.124;2022-09-12T12:52:31;22.10;93.40
44215;DHT22;29884;47.450;19.124;2022-09-12T12:54:59;21.90;93.60
44215;DHT22;29884;47.450;19.124;2022-09-12T12:57:51;21.90;93.70
44215;DHT22;29884;47.450;19.124;2022-09-12T13:02:58;22.30;92.60
44215;DHT22;29884;47.450;19.124;2022-09-12T13:05:26;22.40;93.30
44215;DHT22;29884;47.450;19.124;2022-09-12T13:07:57;22.70;93.10
44215;DHT22;29884;47.450;19.124;2022-09-12T13:10:25;22.70;92.20
44215;DHT22;29884;47.450;19.124;2022-09-12T13:12:55;22.40;92.20
44215;DHT22;29884;47.450;19.124;2022-09-12T13:18:03;22.10;91.70
44215;DHT22;29884;47.450;19.124;2022-09-12T13:20:37;21.80;92.60
44215;DHT22;29884;47.450;19.124;2022-09-12T13:23:30;21.60;92.70
44215;DHT22;29884;47.450;19.124;2022-09-12T13:25:58;21.50;92.80
44215;DHT22;29884;47.450;19.124;2022-09-12T13:28:26;21.40;93.50
44215;DHT22;29884;47.450;19.124;2022-09-12T13:31:10;21.40;93.80
44215;DHT22;29884;47.450;19.124;2022-09-12T13:33:46;21.60;93.60
44215;DHT22;29884;47.450;19.124;2022-09-12T13:36:51;22.00;92.70
44215;DHT22;29884;47.450;19.124;2022-09-12T13:45:00;22.30;91.20
44215;DHT22;29884;47.450;19.124;2022-09-12T13:47:35;22.40;91.40
44215;DHT22;29884;47.450;19.124;2022-09-12T13:50:05;22.30;90.60
44215;DHT22;29884;47.450;19.124;2022-09-12T13:52:34;22.20;90.80
44215;DHT22;29884;47.450;19.124;2022-09-12T13:55:05;21.90;90.90
44215;DHT22;29884;47.450;19.124;2022-09-12T13:57:34;21.50;90.30
44215;DHT22;29884;47.450;19.124;2022-09-12T14:00:17;21.20;90.60
44215;DHT22;29884;47.450;19.124;2022-09-12T14:02:45;21.10;91.30
44215;DHT22;29884;47.450;19.124;2022-09-12T14:05:20;21.40;91.90
44215;DHT22;29884;47.450;19.124;2022-09-12T14:07:58;21.90;91.40
44215;DHT22;29884;47.450;19.124;2022-09-12T14:10:27;22.20;90.80
44215;DHT22;29884;47.450;19.124;2022-09-12T14:12:54;22.50;90.10
44215;DHT22;29884;47.450;19.124;2022-09-12T14:15:24;22.50;84.70
44215;DHT22;29884;47.450;19.124;2022-09-12T14:17:56;22.50;83.80
44215;DHT22;29884;47.450;19.124;2022-09-12T14:20:30;22.50;82.10
44215;DHT22;29884;47.450;19.124;2022-09-12T14:23:01;22.60;81.60
44215;DHT22;29884;47.450;19.124;2022-09-12T14:25:34;22.70;82.80
44215;DHT22;29884;47.450;19.124;2022-09-12T14:28:02;22.70;81.40
44215;DHT22;29884;47.450;19.124;2022-09-12T14:30:34;22.70;81.00
44215;DHT22;29884;47.450;19.124;2022-09-12T14:33:21;22.60;80.40
44215;DHT22;29884;47.450;19.124;2022-09-12T14:40:43;22.70;80.20
44215;DHT22;29884;47.450;19.124;2022-09-12T14:43:20;22.70;81.00
44215;DHT22;29884;47.450;19.124;2022-09-12T14:46:01;22.80;81.40
44215;DHT22;29884;47.450;19.124;2022-09-12T14:48:30;22.90;80.50
44215;DHT22;29884;47.450;19.124;2022-09-12T14:50:57;22.80;79.80
44215;DHT22;29884;47.450;19.124;2022-09-12T14:53:34;22.70;79.50
44215;DHT22;29884;47.450;19.124;2022-09-12T14:56:12;22.80;79.30
44215;DHT22;29884;47.450;19.124;2022-09-12T14:58:41;22.90;80.90
44215;DHT22;29884;47.450;19.124;2022-09-12T15:06:01;22.90;77.90
44215;DHT22;29884;47.450;19.124;2022-09-12T15:08:29;22.90;77.30
44215;DHT22;29884;47.450;19.124;2022-09-12T15:10:55;22.80;77.30
44215;DHT22;29884;47.450;19.124;2022-09-12T15:13:25;22.60;77.50
44215;DHT22;29884;47.450;19.124;2022-09-12T15:15:55;22.50;77.30
44215;DHT22;29884;47.450;19.124;2022-09-12T15:18:24;22.50;77.30
44215;DHT22;29884;47.450;19.124;2022-09-12T15:20:52;22.50;77.40
44215;DHT22;29884;47.450;19.124;2022-09-12T15:25:56;22.50;77.70
44215;DHT22;29884;47.450;19.124;2022-09-12T15:28:23;22.40;76.50
44215;DHT22;29884;47.450;19.124;2022-09-12T15:30:52;22.30;75.80
44215;DHT22;29884;47.450;19.124;2022-09-12T15:33:21;22.20;75.90
44215;DHT22;29884;47.450;19.124;2022-09-12T15:35:47;22.20;76.30
44215;DHT22;29884;47.450;19.124;2022-09-12T15:38:13;22.10;76.80
44215;DHT22;29884;47.450;19.124;2022-09-12T15:40:39;22.10;76.60
44215;DHT22;29884;47.450;19.124;2022-09-12T15:43:05;22.00;76.10
44215;DHT22;29884;47.450;19.124;2022-09-12T15:45:33;21.90;76.50
44215;DHT22;29884;47.450;19.124;2022-09-12T15:47:59;21.90;76.90
44215;DHT22;29884;47.450;19.124;2022-09-12T15:50:27;21.90;77.20
44215;DHT22;29884;47.450;19.124;2022-09-12T15:52:53;21.80;76.60
44215;DHT22;29884;47.450;19.124;2022-09-12T15:55:24;21.70;76.70
44215;DHT22;29884;47.450;19.124;2022-09-12T15:57:50;21.60;76.40
44215;DHT22;29884;47.450;19.124;2022-09-12T16:00:17;21.60;76.80
44215;DHT22;29884;47.450;19.124;2022-09-12T16:02:44;21.50;76.50
44215;DHT22;29884;47.450;19.124;2022-09-12T16:05:16;21.40;76.80
44215;DHT22;29884;47.450;19.124;2022-09-12T16:07:43;21.40;77.60
44215;DHT22;29884;47.450;19.124;2022-09-12T16:10:16;21.30;77.50
44215;DHT22;29884;47.450;19.124;2022-09-12T16:12:43;21.30;77.90
44215;DHT22;29884;47.450;19.124;2022-09-12T16:15:15;21.20;78.70
44215;DHT22;29884;47.450;19.124;2022-09-12T16:17:41;21.10;78.80
44215;DHT22;29884;47.450;19.124;2022-09-12T16:20:07;21.10;79.40
44215;DHT22;29884;47.450;19.124;2022-09-12T16:22:34;21.00;79.20
44215;DHT22;29884;47.450;19.124;2022-09-12T16:25:00;20.90;79.70
44215;DHT22;29884;47.450;19.124;2022-09-12T16:27:25;20.90;80.00
44215;DHT22;29884;47.450;19.124;2022-09-12T16:29:51;20.80;80.30
44215;DHT22;29884;47.450;19.124;2022-09-12T16:32:17;20.80;80.50
44215;DHT22;29884;47.450;19.124;2022-09-12T16:34:43;20.80;80.70
44215;DHT22;29884;47.450;19.124;2022-09-12T16:37:09;20.70;81.40
44215;DHT22;29884;47.450;19.124;2022-09-12T16:39:35;20.60;81.70
44215;DHT22;29884;47.450;19.124;2022-09-12T16:42:01;20.60;81.90
44215;DHT22;29884;47.450;19.124;2022-09-12T16:44:27;20.50;82.00
44215;DHT22;29884;47.450;19.124;2022-09-12T16:46:52;20.50;82.40
44215;DHT22;29884;47.450;19.124;2022-09-12T16:49:18;20.40;83.20
44215;DHT22;29884;47.450;19.124;2022-09-12T16:51:44;20.30;83.30
44215;DHT22;29884;47.450;19.124;2022-09-12T16:54:13;20.20;83.50
44215;DHT22;29884;47.450;19.124;2022-09-12T16:56:39;20.20;83.30
44215;DHT22;29884;47.450;19.124;2022-09-12T16:59:06;20.20;84.20
44215;DHT22;29884;47.450;19.124;2022-09-12T17:01:33;20.10;84.00
44215;DHT22;29884;47.450;19.124;2022-09-12T17:03:59;20.00;84.40
44215;DHT22;29884;47.450;19.124;2022-09-12T17:06:26;20.00;84.30
44215;DHT22;29884;47.450;19.124;2022-09-12T17:08:53;19.90;84.60
44215;DHT22;29884;47.450;19.124;2022-09-12T17:11:27;19.90;85.00
44215;DHT22;29884;47.450;19.124;2022-09-12T17:13:57;19.80;85.90
44215;DHT22;29884;47.450;19.124;2022-09-12T17:16:23;19.70;85.80
44215;DHT22;29884;47.450;19.124;2022-09-12T17:18:51;19.70;86.20
44215;DHT22;29884;47.450;19.124;2022-09-12T17:21:17;19.60;86.50
44215;DHT22;29884;47.450;19.124;2022-09-12T17:23:43;19.60;86.30
44215;DHT22;29884;47.450;19.124;2022-09-12T17:26:09;19.60;86.30
44215;DHT22;29884;47.450;19.124;2022-09-12T17:28:36;19.50;86.10
44215;DHT22;29884;47.450;19.124;2022-09-12T17:31:05;19.50;86.10
44215;DHT22;29884;47.450;19.124;2022-09-12T17:33:32;19.50;86.00
44215;DHT22;29884;47.450;19.124;2022-09-12T17:36:03;19.50;86.40
44215;DHT22;29884;47.450;19.124;2022-09-12T17:38:34;19.40;86.30
44215;DHT22;29884;47.450;19.124;2022-09-12T17:41:23;19.40;86.00
44215;DHT22;29884;47.450;19.124;2022-09-12T17:43:51;19.40;87.10
44215;DHT22;29884;47.450;19.124;2022-09-12T17:46:19;19.30;86.30
44215;DHT22;29884;47.450;19.124;2022-09-12T17:48:53;19.30;86.40
44215;DHT22;29884;47.450;19.124;2022-09-12T17:51:21;19.20;86.30
44215;DHT22;29884;47.450;19.124;2022-09-12T17:53:47;19.20;86.40
44215;DHT22;29884;47.450;19.124;2022-09-12T17:56:13;19.10;87.20
44215;DHT22;29884;47.450;19.124;2022-09-12T17:58:40;19.00;87.20
44215;DHT22;29884;47.450;19.124;2022-09-12T18:01:12;19.00;87.20
44215;DHT22;29884;47.450;19.124;2022-09-12T18:03:58;19.00;87.30
44215;DHT22;29884;47.450;19.124;2022-09-12T18:06:25;18.90;87.60
44215;DHT22;29884;47.450;19.124;2022-09-12T18:08:51;18.80;88.00
44215;DHT22;29884;47.450;19.124;2022-09-12T18:11:17;18.80;87.80
44215;DHT22;29884;47.450;19.124;2022-09-12T18:13:43;18.80;88.20